createdAt,value
2018-08-17T00:00:26.180Z,6.97
2018-08-17T00:02:54.683Z,6.73
2018-08-17T00:05:23.278Z,6.60
2018-08-17T00:07:51.797Z,7.10
2018-08-17T00:10:20.298Z,7.60
2018-08-17T00:12:48.767Z,6.67
2018-08-17T00:15:17.302Z,6.97
2018-08-17T00:17:46.172Z,6.87
2018-08-17T00:20:14.762Z,6.67
2018-08-17T00:22:43.274Z,6.63
2018-08-17T00:25:11.810Z,7.00
2018-08-17T00:27:40.305Z,6.73
2018-08-17T00:30:09.442Z,6.70
2018-08-17T00:32:37.928Z,6.67
2018-08-17T00:35:06.516Z,6.90
2018-08-17T00:37:35.053Z,6.80
2018-08-17T00:40:03.622Z,6.80
2018-08-17T00:42:32.125Z,6.60
2018-08-17T00:45:00.713Z,7.20
2018-08-17T00:47:29.227Z,7.03
2018-08-17T00:49:57.694Z,7.17
2018-08-17T00:52:26.213Z,6.80
2018-08-17T00:54:54.713Z,6.43
2018-08-17T00:57:23.265Z,6.80
2018-08-17T00:59:51.754Z,6.57
2018-08-17T01:02:20.293Z,7.10
2018-08-17T01:04:48.777Z,7.60
2018-08-17T01:07:17.302Z,7.07
2018-08-17T01:09:45.753Z,7.33
2018-08-17T01:12:14.281Z,7.03
2018-08-17T01:14:42.774Z,7.30
2018-08-17T01:17:11.296Z,6.90
2018-08-17T01:19:39.758Z,6.83
2018-08-17T01:22:08.261Z,6.80
2018-08-17T01:24:36.721Z,6.73
2018-08-17T01:27:05.332Z,6.60
2018-08-17T01:29:33.799Z,6.27
2018-08-17T01:32:02.342Z,6.63
2018-08-17T01:34:30.810Z,7.03
2018-08-17T01:36:59.316Z,7.23
2018-08-17T01:39:27.797Z,7.00
2018-08-17T01:41:56.302Z,7.53
2018-08-17T01:44:24.817Z,6.67
2018-08-17T01:46:53.314Z,6.80
2018-08-17T01:49:21.790Z,6.83
2018-08-17T01:51:50.279Z,6.47
2018-08-17T01:54:18.773Z,5.97
2018-08-17T01:56:47.270Z,7.67
2018-08-17T01:59:15.728Z,7.73
2018-08-17T02:01:44.261Z,8.17
2018-08-17T02:04:12.749Z,8.03
2018-08-17T02:06:41.237Z,8.17
2018-08-17T02:09:11.509Z,8.30
2018-08-17T02:11:43.262Z,7.33
2018-08-17T02:14:11.733Z,7.87
2018-08-17T02:16:40.540Z,8.07
2018-08-17T02:19:10.151Z,7.20
2018-08-17T02:21:38.682Z,7.43
2018-08-17T02:24:07.167Z,7.53
2018-08-17T02:26:35.682Z,6.03
2018-08-17T02:29:04.181Z,7.20
2018-08-17T02:31:32.685Z,6.50
2018-08-17T02:34:01.170Z,6.70
2018-08-17T02:36:29.689Z,6.63
2018-08-17T02:38:58.161Z,6.80
2018-08-17T02:41:27.037Z,6.50
2018-08-17T02:43:55.549Z,6.53
2018-08-17T02:46:24.069Z,6.43
2018-08-17T02:48:52.564Z,6.63
2018-08-17T02:51:21.071Z,6.83
2018-08-17T02:53:49.597Z,6.73
2018-08-17T02:56:18.066Z,6.10
2018-08-17T02:58:46.541Z,6.10
2018-08-17T03:01:15.034Z,6.50
2018-08-17T03:03:43.536Z,6.53
2018-08-17T03:06:11.989Z,6.80
2018-08-17T03:08:40.525Z,6.77
2018-08-17T03:11:08.996Z,6.13
2018-08-17T03:13:37.520Z,6.17
2018-08-17T03:16:06.001Z,6.40
2018-08-17T03:18:34.523Z,6.40
2018-08-17T03:21:03.013Z,6.97
2018-08-17T03:23:31.526Z,6.60
2018-08-17T03:25:59.998Z,6.57
2018-08-17T03:28:28.531Z,6.47
2018-08-17T03:30:57.056Z,7.80
2018-08-17T03:33:25.570Z,6.93
2018-08-17T03:35:54.049Z,7.70
2018-08-17T03:38:22.583Z,7.77
2018-08-17T03:40:51.084Z,8.30
2018-08-17T03:43:19.598Z,7.30
2018-08-17T03:45:48.073Z,8.30
2018-08-17T03:48:16.622Z,8.10
2018-08-17T03:50:45.102Z,8.63
2018-08-17T03:53:13.624Z,7.80
2018-08-17T03:55:42.129Z,9.07
2018-08-17T03:58:10.636Z,8.37
2018-08-17T04:00:39.106Z,9.60
2018-08-17T04:03:07.690Z,10.33
2018-08-17T04:05:36.184Z,10.07
2018-08-17T04:08:04.737Z,10.10
2018-08-17T04:10:33.202Z,10.57
2018-08-17T04:13:01.715Z,10.20
2018-08-17T04:15:30.212Z,9.73
2018-08-17T04:17:58.778Z,10.80
2018-08-17T04:20:27.265Z,9.90
2018-08-17T04:22:55.778Z,10.60
2018-08-17T04:25:24.544Z,10.50
2018-08-17T04:27:53.031Z,10.67
2018-08-17T04:30:21.558Z,12.40
2018-08-17T04:32:50.065Z,11.47
2018-08-17T04:35:18.567Z,11.47
2018-08-17T04:37:47.054Z,10.80
2018-08-17T04:40:15.518Z,10.70
2018-08-17T04:42:44.054Z,11.70
2018-08-17T04:45:12.557Z,12.37
2018-08-17T04:47:41.074Z,12.03
2018-08-17T04:50:10.290Z,11.60
2018-08-17T04:52:39.489Z,11.27
2018-08-17T04:55:08.417Z,11.93
2018-08-17T04:57:36.985Z,11.97
2018-08-17T05:00:07.293Z,11.87
2018-08-17T05:02:36.047Z,11.37
2018-08-17T05:05:04.857Z,11.33
2018-08-17T05:07:33.566Z,11.17
2018-08-17T05:10:02.622Z,11.77
2018-08-17T05:12:31.109Z,11.43
2018-08-17T05:14:59.612Z,10.93
2018-08-17T05:17:28.076Z,10.70
2018-08-17T05:19:56.584Z,11.53
2018-08-17T05:22:25.064Z,10.73
2018-08-17T05:24:53.607Z,11.23
2018-08-17T05:27:22.127Z,10.97
2018-08-17T05:29:50.628Z,10.67
2018-08-17T05:32:19.167Z,10.57
2018-08-17T05:34:47.676Z,10.53
2018-08-17T05:37:16.174Z,10.70
2018-08-17T05:39:44.682Z,10.80
2018-08-17T05:42:13.193Z,11.40
2018-08-17T05:44:41.765Z,11.13
2018-08-17T05:47:10.338Z,10.53
2018-08-17T05:49:39.057Z,10.63
2018-08-17T05:52:08.100Z,10.90
2018-08-17T05:54:36.598Z,10.70
2018-08-17T05:57:05.260Z,9.87
2018-08-17T05:59:34.385Z,10.43
2018-08-17T06:02:02.925Z,10.37
2018-08-17T06:04:32.038Z,9.63
2018-08-17T06:07:00.513Z,10.13
2018-08-17T06:09:29.365Z,11.30
2018-08-17T06:11:59.211Z,9.60
2018-08-17T06:14:27.794Z,9.70
2018-08-17T06:16:56.901Z,9.77
2018-08-17T06:19:25.543Z,9.73
2018-08-17T06:21:54.058Z,9.47
2018-08-17T06:24:29.786Z,9.53
2018-08-17T06:26:58.426Z,9.73
2018-08-17T06:29:26.952Z,9.40
2018-08-17T06:31:55.658Z,9.73
2018-08-17T06:34:24.414Z,9.43
2018-08-17T06:36:52.905Z,8.73
2018-08-17T06:39:21.441Z,9.10
2018-08-17T06:41:49.970Z,8.73
2018-08-17T06:44:18.510Z,8.03
2018-08-17T06:46:47.049Z,8.63
2018-08-17T06:49:15.612Z,8.30
2018-08-17T06:51:44.137Z,8.13
2018-08-17T06:54:12.727Z,7.60
2018-08-17T06:56:41.254Z,6.73
2018-08-17T06:59:09.822Z,6.80
2018-08-17T07:01:38.371Z,6.87
2018-08-17T07:04:07.379Z,6.90
2018-08-17T07:06:35.908Z,6.47
2018-08-17T07:09:06.070Z,6.10
2018-08-17T07:11:34.631Z,6.03
2018-08-17T07:14:03.146Z,6.60
2018-08-17T07:16:31.716Z,5.70
2018-08-17T07:19:00.331Z,6.63
2018-08-17T07:21:28.926Z,6.00
2018-08-17T07:23:57.776Z,5.80
2018-08-17T07:26:28.148Z,5.13
2018-08-17T07:28:56.736Z,4.95
2018-08-17T07:31:25.557Z,4.95
2018-08-17T07:33:54.210Z,4.20
2018-08-17T07:36:22.846Z,3.27
2018-08-17T07:38:51.381Z,4.40
2018-08-17T07:41:19.889Z,4.55
2018-08-17T07:43:48.341Z,4.17
2018-08-17T07:46:16.827Z,4.50
2018-08-17T07:48:45.263Z,4.40
2018-08-17T07:51:13.744Z,4.75
2018-08-17T07:53:42.189Z,4.35
2018-08-17T07:56:10.674Z,4.80
2018-08-17T07:58:39.153Z,4.78
2018-08-17T08:01:07.999Z,4.53
2018-08-17T08:03:36.474Z,4.90
2018-08-17T08:06:04.962Z,3.95
2018-08-17T08:08:33.425Z,3.62
2018-08-17T08:11:01.970Z,3.72
2018-08-17T08:13:30.387Z,4.10
2018-08-17T08:15:58.931Z,3.62
2018-08-17T08:18:27.415Z,3.85
2018-08-17T08:20:55.927Z,3.80
2018-08-17T08:23:27.277Z,3.15
2018-08-17T08:25:56.235Z,3.52
2018-08-17T08:28:24.717Z,3.30
2018-08-17T08:30:53.257Z,3.58
2018-08-17T08:33:21.894Z,3.00
2018-08-17T08:35:50.838Z,2.80
2018-08-17T08:38:19.633Z,3.05
2018-08-17T08:40:48.625Z,2.20
2018-08-17T08:43:17.121Z,4.22
2018-08-17T08:45:45.649Z,2.22
2018-08-17T08:48:14.081Z,2.72
2018-08-17T08:50:42.617Z,2.52
2018-08-17T08:53:11.129Z,2.58
2018-08-17T08:55:39.623Z,2.40
2018-08-17T08:58:09.085Z,3.10
2018-08-17T09:00:37.574Z,4.78
2018-08-17T09:03:06.951Z,2.62
2018-08-17T09:05:35.464Z,2.60
2018-08-17T09:08:04.125Z,2.37
2018-08-17T09:10:32.557Z,2.12
2018-08-17T09:14:25.425Z,2.20
2018-08-17T09:16:53.920Z,3.20
2018-08-17T09:19:22.402Z,2.00
2018-08-17T09:21:50.912Z,2.47
2018-08-17T09:24:19.391Z,2.80
2018-08-17T09:26:47.868Z,2.40
2018-08-17T09:29:38.154Z,1.82
2018-08-17T09:32:06.799Z,3.17
2018-08-17T09:34:35.848Z,2.42
2018-08-17T09:37:04.541Z,3.17
2018-08-17T09:39:33.054Z,2.50
2018-08-17T09:42:01.599Z,2.08
2018-08-17T09:44:30.030Z,2.50
2018-08-17T09:46:58.534Z,3.60
2018-08-17T09:49:27.929Z,2.08
2018-08-17T09:51:56.422Z,2.10
2018-08-17T09:54:24.883Z,2.45
2018-08-17T09:56:53.385Z,3.20
2018-08-17T09:59:21.842Z,2.25
2018-08-17T10:01:55.490Z,2.20
2018-08-17T10:04:29.333Z,2.20
2018-08-17T10:07:03.110Z,2.17
2018-08-17T10:09:36.898Z,2.70
2018-08-17T10:12:05.366Z,3.10
2018-08-17T10:17:13.079Z,2.10
2018-08-17T10:19:41.522Z,3.22
2018-08-17T10:22:10.221Z,3.12
2018-08-17T10:24:38.518Z,2.08
2018-08-17T10:27:07.073Z,2.37
2018-08-17T10:29:35.585Z,2.40
2018-08-17T10:32:04.067Z,2.55
2018-08-17T10:34:35.588Z,2.20
2018-08-17T10:37:04.077Z,3.05
2018-08-17T10:39:33.305Z,2.30
2018-08-17T10:42:01.774Z,2.20
2018-08-17T10:44:30.274Z,2.40
2018-08-17T10:46:59.300Z,2.90
2018-08-17T10:49:27.759Z,2.10
2018-08-17T10:51:57.085Z,2.77
2018-08-17T10:54:25.825Z,2.20
2018-08-17T10:56:54.379Z,2.40
2018-08-17T10:59:22.860Z,2.67
2018-08-17T11:01:52.232Z,4.15
2018-08-17T11:04:20.713Z,2.10
2018-08-17T11:06:49.215Z,1.87
2018-08-17T11:09:17.702Z,3.05
2018-08-17T11:11:46.142Z,2.30
2018-08-17T11:14:14.638Z,2.10
2018-08-17T11:16:43.101Z,2.05
2018-08-17T11:19:11.572Z,2.17
2018-08-17T11:21:40.034Z,3.40
2018-08-17T11:24:11.947Z,2.08
2018-08-17T11:26:40.389Z,2.12
2018-08-17T11:29:08.881Z,2.00
2018-08-17T11:31:37.857Z,2.05
2018-08-17T11:34:06.418Z,1.90
2018-08-17T11:36:34.945Z,1.90
2018-08-17T11:39:03.590Z,3.65
2018-08-17T11:41:32.122Z,2.42
2018-08-17T11:44:03.811Z,2.00
2018-08-17T11:46:32.586Z,2.10
2018-08-17T11:49:01.091Z,2.47
2018-08-17T11:51:29.826Z,2.75
2018-08-17T11:53:58.411Z,2.00
2018-08-17T11:56:26.853Z,2.00
2018-08-17T11:58:55.391Z,1.98
2018-08-17T12:01:26.924Z,1.90
2018-08-17T12:03:55.579Z,2.02
2018-08-17T12:06:24.352Z,2.15
2018-08-17T12:08:52.986Z,3.17
2018-08-17T12:11:21.494Z,2.47
2018-08-17T12:13:50.011Z,1.95
2018-08-17T12:16:18.483Z,2.10
2018-08-17T12:18:47.097Z,2.00
2018-08-17T12:21:15.555Z,1.98
2018-08-17T12:23:44.071Z,1.70
2018-08-17T12:26:13.247Z,1.90
2018-08-17T12:28:41.772Z,2.10
2018-08-17T12:31:10.301Z,1.87
2018-08-17T12:33:38.806Z,2.90
2018-08-17T12:36:08.937Z,2.10
2018-08-17T12:38:37.497Z,2.05
2018-08-17T12:41:08.201Z,2.30
2018-08-17T12:43:38.677Z,2.02
2018-08-17T12:46:07.482Z,2.15
2018-08-17T12:48:35.959Z,3.70
2018-08-17T12:51:05.625Z,2.30
2018-08-17T12:53:34.483Z,2.62
2018-08-17T12:56:03.065Z,2.27
2018-08-17T12:58:31.550Z,2.10
2018-08-17T13:01:00.073Z,2.05
2018-08-17T13:03:28.524Z,2.37
2018-08-17T13:05:57.052Z,2.33
2018-08-17T13:08:25.615Z,4.47
2018-08-17T13:10:55.737Z,2.60
2018-08-17T13:13:24.137Z,2.40
2018-08-17T13:15:57.824Z,2.27
2018-08-17T13:18:26.277Z,2.30
2018-08-17T13:20:55.435Z,2.37
2018-08-17T13:23:23.890Z,3.22
2018-08-17T13:25:53.414Z,2.90
2018-08-17T13:28:21.871Z,2.52
2018-08-17T13:30:50.381Z,2.30
2018-08-17T13:33:18.849Z,2.40
2018-08-17T13:35:47.373Z,2.37
2018-08-17T13:38:15.866Z,2.87
2018-08-17T13:40:44.361Z,2.27
2018-08-17T13:43:12.871Z,1.92
2018-08-17T13:45:41.390Z,3.08
2018-08-17T13:48:09.890Z,2.17
2018-08-17T13:50:38.429Z,2.30
2018-08-17T13:53:06.962Z,2.30
2018-08-17T13:55:35.461Z,3.02
2018-08-17T13:58:03.941Z,2.40
2018-08-17T14:00:32.445Z,2.40
2018-08-17T14:03:00.934Z,2.27
2018-08-17T14:05:29.420Z,2.10
2018-08-17T14:07:57.881Z,2.33
2018-08-17T14:10:27.131Z,2.22
2018-08-17T14:12:55.581Z,3.67
2018-08-17T14:15:24.117Z,2.42
2018-08-17T14:17:52.549Z,2.12
2018-08-17T14:20:21.858Z,2.22
2018-08-17T14:22:50.313Z,2.40
2018-08-17T14:25:18.961Z,2.20
2018-08-17T14:27:47.415Z,2.40
2018-08-17T14:30:18.017Z,2.00
2018-08-17T14:32:46.511Z,2.20
2018-08-17T14:35:15.408Z,2.17
2018-08-17T14:37:43.990Z,2.15
2018-08-17T14:40:13.267Z,2.30
2018-08-17T14:42:41.812Z,2.12
2018-08-17T14:45:11.035Z,2.65
2018-08-17T14:47:39.716Z,2.77
2018-08-17T14:50:10.012Z,2.37
2018-08-17T14:52:38.653Z,2.47
2018-08-17T14:55:07.570Z,2.65
2018-08-17T14:57:36.077Z,2.70
2018-08-17T15:00:05.419Z,3.02
2018-08-17T15:02:33.865Z,2.20
2018-08-17T15:05:02.322Z,2.52
2018-08-17T15:07:30.816Z,2.67
2018-08-17T15:09:59.226Z,2.75
2018-08-17T15:12:27.690Z,2.70
2018-08-17T15:14:56.133Z,2.33
2018-08-17T15:17:24.642Z,2.83
2018-08-17T15:19:53.077Z,2.52
2018-08-17T15:22:21.597Z,2.45
2018-08-17T15:24:50.105Z,2.50
2018-08-17T15:27:18.615Z,2.45
2018-08-17T15:29:47.366Z,2.92
2018-08-17T15:32:15.841Z,2.22
2018-08-17T15:34:44.313Z,2.20
2018-08-17T15:37:12.794Z,2.60
2018-08-17T15:39:41.241Z,2.65
2018-08-17T15:42:09.826Z,2.30
2018-08-17T15:44:38.277Z,2.45
2018-08-17T15:47:06.840Z,2.47
2018-08-17T15:49:36.627Z,2.40
2018-08-17T15:52:06.579Z,2.40
2018-08-17T15:54:35.006Z,2.37
2018-08-17T15:57:03.516Z,2.40
2018-08-17T15:59:32.029Z,5.08
2018-08-17T16:02:00.547Z,2.30
2018-08-17T16:04:28.996Z,2.60
2018-08-17T16:06:57.520Z,3.25
2018-08-17T16:09:25.992Z,2.10
2018-08-17T16:11:54.511Z,2.77
2018-08-17T16:14:22.989Z,2.40
2018-08-17T16:16:51.470Z,3.05
2018-08-17T16:19:19.953Z,2.50
2018-08-17T16:21:48.416Z,2.70
2018-08-17T16:24:16.894Z,2.33
2018-08-17T16:26:45.430Z,2.58
2018-08-17T16:29:13.898Z,2.33
2018-08-17T16:31:43.629Z,2.50
2018-08-17T16:34:12.091Z,2.60
2018-08-17T16:36:43.011Z,2.30
2018-08-17T16:39:14.319Z,2.40
2018-08-17T16:41:43.120Z,2.90
2018-08-17T16:44:11.950Z,2.47
2018-08-17T16:46:41.967Z,2.52
2018-08-17T16:49:10.514Z,2.90
2018-08-17T16:51:39.234Z,2.40
2018-08-17T16:54:07.770Z,2.37
2018-08-17T16:56:36.431Z,2.40
2018-08-17T16:59:05.084Z,2.55
2018-08-17T17:01:33.525Z,2.70
2018-08-17T17:04:02.047Z,2.50
2018-08-17T17:06:30.529Z,2.47
2018-08-17T17:09:03.093Z,2.67
2018-08-17T17:11:31.615Z,2.65
2018-08-17T17:14:00.129Z,3.02
2018-08-17T17:16:50.166Z,2.70
2018-08-17T17:19:21.650Z,2.58
2018-08-17T17:21:51.279Z,3.75
2018-08-17T17:24:20.426Z,2.30
2018-08-17T17:26:48.937Z,2.20
2018-08-17T17:29:18.452Z,3.37
2018-08-17T17:31:50.528Z,3.40
2018-08-17T17:34:19.115Z,2.80
2018-08-17T17:36:47.701Z,4.65
2018-08-17T17:39:16.297Z,2.70
2018-08-17T17:41:44.870Z,8.80
2018-08-17T17:44:13.391Z,3.37
2018-08-17T17:46:42.493Z,3.10
2018-08-17T17:49:11.414Z,4.25
2018-08-17T17:51:39.933Z,4.65
2018-08-17T17:54:08.571Z,11.10
2018-08-17T17:56:37.161Z,13.08
2018-08-17T17:59:11.070Z,12.15
2018-08-17T18:01:39.497Z,3.92
2018-08-17T18:04:08.010Z,2.80
2018-08-17T18:06:36.522Z,2.62
2018-08-17T18:09:06.138Z,6.40
2018-08-17T18:11:34.681Z,6.25
2018-08-17T18:14:03.218Z,5.85
2018-08-17T18:16:31.735Z,3.50
2018-08-17T18:19:00.263Z,5.37
2018-08-17T18:21:31.331Z,5.67
2018-08-17T18:24:05.057Z,4.65
2018-08-17T18:26:33.602Z,5.80
2018-08-17T18:29:02.150Z,7.78
2018-08-17T18:31:30.753Z,10.47
2018-08-17T18:33:59.256Z,5.70
2018-08-17T18:36:27.780Z,8.13
2018-08-17T18:38:56.291Z,11.07
2018-08-17T18:41:24.809Z,12.37
2018-08-17T18:43:53.320Z,7.00
2018-08-17T18:46:21.866Z,4.83
2018-08-17T18:48:50.394Z,5.10
2018-08-17T18:51:18.921Z,4.07
2018-08-17T18:53:47.429Z,6.17
2018-08-17T18:56:15.958Z,7.20
2018-08-17T18:58:44.449Z,4.60
2018-08-17T19:01:13.103Z,8.17
2018-08-17T19:03:41.814Z,8.93
2018-08-17T19:06:10.652Z,4.90
2018-08-17T19:08:39.593Z,4.70
2018-08-17T19:11:08.282Z,9.80
2018-08-17T19:13:36.924Z,5.70
2018-08-17T19:16:05.706Z,6.90
2018-08-17T19:18:34.269Z,7.60
2018-08-17T19:21:05.348Z,5.00
2018-08-17T19:23:33.874Z,5.47
2018-08-17T19:26:02.380Z,6.40
2018-08-17T19:28:31.190Z,5.30
2018-08-17T19:30:59.791Z,7.53
2018-08-17T19:33:28.670Z,5.93
2018-08-17T19:35:57.451Z,5.40
2018-08-17T19:38:26.059Z,5.47
2018-08-17T19:40:55.101Z,6.63
2018-08-17T19:43:23.697Z,7.80
2018-08-17T19:45:52.316Z,5.20
2018-08-17T19:48:21.352Z,6.43
2018-08-17T19:50:49.998Z,5.93
2018-08-17T19:53:19.543Z,6.73
2018-08-17T19:55:48.160Z,6.80
2018-08-17T19:58:17.040Z,5.10
2018-08-17T20:00:45.529Z,6.50
2018-08-17T20:03:14.226Z,10.20
2018-08-17T20:05:42.757Z,8.30
2018-08-17T20:08:11.320Z,8.57
2018-08-17T20:10:40.043Z,6.43
2018-08-17T20:13:08.975Z,6.00
2018-08-17T20:15:37.597Z,6.40
2018-08-17T20:18:06.536Z,5.50
2018-08-17T20:20:35.737Z,5.40
2018-08-17T20:23:04.340Z,5.90
2018-08-17T20:25:32.886Z,6.70
2018-08-17T20:28:01.508Z,6.10
2018-08-17T20:30:30.126Z,5.73
2018-08-17T20:32:58.669Z,5.10
2018-08-17T20:35:27.375Z,6.50
2018-08-17T20:37:55.938Z,6.57
2018-08-17T20:40:24.444Z,6.63
2018-08-17T20:42:54.775Z,5.30
2018-08-17T20:45:26.389Z,6.20
2018-08-17T20:47:55.086Z,9.07
2018-08-17T20:50:23.622Z,6.83
2018-08-17T20:52:57.531Z,5.97
2018-08-17T20:55:26.114Z,9.20
2018-08-17T20:57:55.853Z,5.23
2018-08-17T21:00:26.010Z,6.50
2018-08-17T21:02:55.430Z,5.17
2018-08-17T21:05:24.099Z,6.63
2018-08-17T21:07:52.621Z,6.93
2018-08-17T21:10:21.245Z,4.60
2018-08-17T21:12:50.059Z,4.80
2018-08-17T21:15:19.043Z,5.10
2018-08-17T21:17:48.161Z,4.73
2018-08-17T21:20:16.795Z,8.77
2018-08-17T21:22:45.326Z,5.03
2018-08-17T21:25:13.898Z,5.80
2018-08-17T21:27:42.452Z,5.77
2018-08-17T21:30:11.441Z,5.23
2018-08-17T21:32:39.970Z,4.87
2018-08-17T21:35:08.764Z,8.17
2018-08-17T21:37:37.845Z,6.27
2018-08-17T21:40:16.421Z,6.10
2018-08-17T21:42:44.989Z,5.70
2018-08-17T21:45:13.555Z,5.40
2018-08-17T21:47:42.081Z,7.03
2018-08-17T21:50:13.692Z,9.13
2018-08-17T21:52:42.799Z,6.87
2018-08-17T21:55:11.382Z,8.17
2018-08-17T21:57:39.903Z,6.50
2018-08-17T22:00:20.632Z,7.83
2018-08-17T22:02:49.291Z,6.40
2018-08-17T22:05:31.502Z,5.90
2018-08-17T22:08:00.594Z,5.80
2018-08-17T22:10:29.509Z,6.37
2018-08-17T22:12:58.055Z,5.87
2018-08-17T22:15:28.028Z,5.27
2018-08-17T22:17:56.579Z,6.20
2018-08-17T22:20:25.205Z,6.20
2018-08-17T22:22:53.741Z,6.13
2018-08-17T22:25:22.328Z,5.40
2018-08-17T22:27:50.957Z,6.50
2018-08-17T22:30:21.685Z,6.23
2018-08-17T22:32:50.357Z,4.97
2018-08-17T22:35:19.118Z,5.37
2018-08-17T22:37:47.565Z,5.87
2018-08-17T22:40:16.132Z,6.80
2018-08-17T22:42:47.379Z,6.00
2018-08-17T22:45:15.956Z,5.90
2018-08-17T22:47:44.506Z,6.13
2018-08-17T22:50:13.041Z,6.03
2018-08-17T22:52:41.553Z,6.03
2018-08-17T22:55:10.371Z,6.17
2018-08-17T22:57:38.931Z,5.90
2018-08-17T23:00:19.230Z,6.50
2018-08-17T23:02:51.874Z,6.60
2018-08-17T23:05:23.165Z,5.23
2018-08-17T23:07:51.710Z,5.27
2018-08-17T23:10:21.428Z,5.33
2018-08-17T23:12:51.005Z,6.20
2018-08-17T23:15:19.563Z,5.43
2018-08-17T23:17:54.339Z,6.47
2018-08-17T23:20:28.299Z,5.23
2018-08-17T23:22:59.066Z,6.33
2018-08-17T23:25:27.604Z,5.80
2018-08-17T23:27:56.373Z,5.93
2018-08-17T23:30:24.904Z,6.80
2018-08-17T23:32:53.628Z,5.80
2018-08-17T23:35:22.172Z,6.43
2018-08-17T23:37:50.800Z,5.50
2018-08-17T23:40:19.438Z,5.63
2018-08-17T23:42:49.038Z,5.67
2018-08-17T23:45:18.254Z,5.47
2018-08-17T23:47:47.221Z,5.53
2018-08-17T23:50:16.343Z,5.83
2018-08-17T23:52:45.025Z,5.50
2018-08-17T23:55:15.576Z,6.57
2018-08-17T23:57:44.158Z,6.40
